createdAt,value
2023-03-24T00:00:26.587Z,101173.84
2023-03-24T00:03:33.111Z,101176.41
2023-03-24T00:06:38.868Z,101182.44
2023-03-24T00:09:45.042Z,101181.41
2023-03-24T00:12:51.996Z,101181.50
2023-03-24T00:15:57.757Z,101185.38
2023-03-24T00:19:03.566Z,101189.28
2023-03-24T00:22:14.815Z,101186.47
2023-03-24T00:25:28.525Z,101197.19
2023-03-24T00:28:37.241Z,101198.44
2023-03-24T00:31:43.485Z,101200.94
2023-03-24T00:34:49.479Z,101188.06
2023-03-24T00:37:55.256Z,101186.91
2023-03-24T00:41:01.931Z,101191.69
2023-03-24T00:44:07.627Z,101185.75
2023-03-24T00:47:13.482Z,101185.72
2023-03-24T00:50:21.639Z,101177.53
2023-03-24T00:53:29.809Z,101178.44
2023-03-24T00:56:38.260Z,101183.59
2023-03-24T00:59:49.489Z,101189.59
2023-03-24T01:02:57.863Z,101193.22
2023-03-24T01:06:05.304Z,101193.00
2023-03-24T01:09:10.878Z,101196.72
2023-03-24T01:12:19.441Z,101188.47
2023-03-24T01:15:29.902Z,101182.53
2023-03-24T01:18:40.842Z,101186.25
2023-03-24T01:21:46.442Z,101176.88
2023-03-24T01:24:52.445Z,101170.47
2023-03-24T01:27:57.772Z,101160.47
2023-03-24T01:31:03.069Z,101150.47
2023-03-24T01:34:08.639Z,101141.38
2023-03-24T01:37:14.654Z,101134.31
2023-03-24T01:40:27.034Z,101130.44
2023-03-24T01:43:34.384Z,101138.78
2023-03-24T01:46:40.024Z,101138.22
2023-03-24T01:49:51.742Z,101145.22
2023-03-24T01:52:57.465Z,101136.97
2023-03-24T01:56:04.345Z,101145.75
2023-03-24T01:59:25.704Z,101141.47
2023-03-24T02:02:59.004Z,101141.22
2023-03-24T02:06:09.099Z,101137.63
2023-03-24T02:09:15.724Z,101134.03
2023-03-24T02:12:21.784Z,101136.13
2023-03-24T02:15:31.609Z,101133.00
2023-03-24T02:18:58.149Z,101127.03
2023-03-24T02:22:24.847Z,101126.22
2023-03-24T02:25:48.554Z,101126.38
2023-03-24T02:29:21.101Z,101131.56
2023-03-24T02:32:32.599Z,101122.72
2023-03-24T02:36:13.275Z,101121.28
2023-03-24T02:39:52.328Z,101116.94
2023-03-24T02:43:17.446Z,101116.63
2023-03-24T02:46:36.824Z,101114.34
2023-03-24T02:49:57.465Z,101110.34
2023-03-24T02:53:17.927Z,101106.94
2023-03-24T02:56:58.615Z,101109.00
2023-03-24T03:00:39.330Z,101103.34
2023-03-24T03:03:57.933Z,101104.25
2023-03-24T03:07:10.282Z,101099.13
2023-03-24T03:10:44.220Z,101101.91
2023-03-24T03:13:58.675Z,101100.16
2023-03-24T03:17:25.671Z,101096.13
2023-03-24T03:20:39.073Z,101093.06
2023-03-24T03:24:27.501Z,101093.50
2023-03-24T03:27:39.627Z,101088.03
2023-03-24T03:30:49.940Z,101093.22
2023-03-24T03:34:22.894Z,101084.91
2023-03-24T03:38:06.813Z,101081.75
2023-03-24T03:41:12.285Z,101082.09
2023-03-24T03:44:17.654Z,101087.75
2023-03-24T03:47:23.442Z,101077.13
2023-03-24T03:50:29.781Z,101083.31
2023-03-24T03:53:58.425Z,101083.91
2023-03-24T03:57:05.911Z,101076.63
2023-03-24T04:00:24.778Z,101073.59
2023-03-24T04:04:33.441Z,101077.84
2023-03-24T04:08:13.555Z,101074.97
2023-03-24T04:12:11.005Z,101076.38
2023-03-24T04:15:57.922Z,101070.91
2023-03-24T04:19:41.823Z,101073.69
2023-03-24T04:23:14.701Z,101077.53
2023-03-24T04:26:34.784Z,101074.13
2023-03-24T04:29:53.301Z,101083.56
2023-03-24T04:33:07.381Z,101082.38
2023-03-24T04:36:42.976Z,101085.03
2023-03-24T04:40:11.581Z,101090.31
2023-03-24T04:43:22.245Z,101078.44
2023-03-24T04:46:27.668Z,101076.31
2023-03-24T04:49:45.907Z,101079.81
2023-03-24T04:52:52.882Z,101075.97
2023-03-24T04:56:51.971Z,101076.56
2023-03-24T05:00:17.182Z,101081.72
2023-03-24T05:03:23.474Z,101088.03
2023-03-24T05:06:28.830Z,101088.16
2023-03-24T05:09:34.818Z,101090.47
2023-03-24T05:12:41.200Z,101102.91
2023-03-24T05:15:55.667Z,101097.56
2023-03-24T05:19:16.214Z,101105.63
2023-03-24T05:22:22.761Z,101102.56
2023-03-24T05:25:28.823Z,101112.66
2023-03-24T05:28:34.173Z,101103.88
2023-03-24T05:31:39.550Z,101103.88
2023-03-24T05:34:49.947Z,101113.56
2023-03-24T05:38:02.498Z,101112.84
2023-03-24T05:41:08.384Z,101115.66
2023-03-24T05:44:17.588Z,101113.19
2023-03-24T05:47:34.720Z,101111.34
2023-03-24T05:50:39.923Z,101121.22
2023-03-24T05:53:45.792Z,101131.13
2023-03-24T05:56:54.436Z,101133.13
2023-03-24T06:00:17.195Z,101137.94
2023-03-24T06:03:34.790Z,101138.56
2023-03-24T06:06:46.035Z,101137.94
2023-03-24T06:09:58.611Z,101136.66
2023-03-24T06:13:05.847Z,101128.06
2023-03-24T06:16:13.418Z,101139.03
2023-03-24T06:19:31.039Z,101137.41
2023-03-24T06:22:52.753Z,101136.41
2023-03-24T06:26:08.511Z,101142.78
2023-03-24T06:29:20.248Z,101142.31
2023-03-24T06:32:27.549Z,101145.31
2023-03-24T06:35:33.034Z,101136.19
2023-03-24T06:38:45.686Z,101136.28
2023-03-24T06:41:56.452Z,101138.34
2023-03-24T06:45:01.645Z,101143.47
2023-03-24T06:48:07.685Z,101137.88
2023-03-24T06:51:13.945Z,101136.63
2023-03-24T06:54:20.496Z,101136.50
2023-03-24T06:57:26.305Z,101146.50
2023-03-24T07:01:03.865Z,101148.38
2023-03-24T07:04:14.720Z,101151.03
2023-03-24T07:11:07.808Z,101168.75
2023-03-24T07:14:14.016Z,101168.28
2023-03-24T07:17:20.759Z,101176.53
2023-03-24T07:20:43.903Z,101167.22
2023-03-24T07:23:53.015Z,101178.63
2023-03-24T07:27:03.825Z,101181.13
2023-03-24T07:30:09.489Z,101181.97
2023-03-24T07:33:20.445Z,101173.66
2023-03-24T07:36:26.377Z,101183.28
2023-03-24T07:39:31.989Z,101184.50
2023-03-24T07:42:37.412Z,101182.25
2023-03-24T07:46:10.278Z,101190.50
2023-03-24T07:49:19.673Z,101178.03
2023-03-24T07:52:49.052Z,101176.28
2023-03-24T07:55:57.816Z,101171.69
2023-03-24T07:59:03.631Z,101165.06
2023-03-24T08:02:27.510Z,101171.38
2023-03-24T08:05:56.031Z,101178.59
2023-03-24T08:09:09.802Z,101164.06
2023-03-24T08:12:20.349Z,101159.69
2023-03-24T08:15:27.434Z,101160.91
2023-03-24T08:18:35.305Z,101160.56
2023-03-24T08:21:41.128Z,101168.97
2023-03-24T08:24:46.464Z,101163.09
2023-03-24T08:27:52.343Z,101166.69
2023-03-24T08:30:57.729Z,101162.38
2023-03-24T08:34:05.025Z,101159.03
2023-03-24T08:37:12.290Z,101168.81
2023-03-24T08:40:24.445Z,101173.22
2023-03-24T08:43:30.898Z,101172.31
2023-03-24T08:46:36.364Z,101177.22
2023-03-24T08:49:41.707Z,101175.09
2023-03-24T08:52:49.931Z,101173.06
2023-03-24T08:55:55.565Z,101173.69
2023-03-24T08:59:01.226Z,101166.38
2023-03-24T09:02:06.430Z,101166.53
2023-03-24T09:05:11.894Z,101166.34
2023-03-24T09:08:19.194Z,101167.41
2023-03-24T09:11:25.106Z,101160.09
2023-03-24T09:14:30.779Z,101152.84
2023-03-24T09:17:37.055Z,101167.06
2023-03-24T09:20:43.828Z,101173.72
2023-03-24T09:23:49.280Z,101158.66
2023-03-24T09:26:54.532Z,101167.38
2023-03-24T09:30:00.421Z,101162.16
2023-03-24T09:33:06.506Z,101168.41
2023-03-24T09:36:12.110Z,101169.31
2023-03-24T09:39:19.702Z,101166.84
2023-03-24T09:42:29.033Z,101168.50
2023-03-24T09:45:43.320Z,101165.00
2023-03-24T09:48:55.579Z,101159.34
2023-03-24T09:52:07.357Z,101159.78
2023-03-24T09:55:19.283Z,101162.53
2023-03-24T09:58:33.902Z,101167.16
2023-03-24T10:01:39.471Z,101166.56
2023-03-24T10:04:45.616Z,101177.03
2023-03-24T10:08:05.195Z,101185.88
2023-03-24T10:11:31.198Z,101189.66
2023-03-24T10:14:45.820Z,101177.94
2023-03-24T10:17:51.292Z,101173.00
2023-03-24T10:21:03.359Z,101165.00
2023-03-24T10:24:17.531Z,101166.00
2023-03-24T10:27:36.313Z,101158.81
2023-03-24T10:30:45.735Z,101154.28
2023-03-24T10:33:52.805Z,101152.94
2023-03-24T10:37:02.130Z,101153.22
2023-03-24T10:40:18.502Z,101152.13
2023-03-24T10:43:26.442Z,101149.44
2023-03-24T10:46:32.354Z,101150.53
2023-03-24T10:49:39.236Z,101142.97
2023-03-24T10:52:49.038Z,101143.50
2023-03-24T10:55:54.245Z,101138.69
2023-03-24T10:59:00.239Z,101147.28
2023-03-24T11:02:19.269Z,101138.94
2023-03-24T11:05:31.019Z,101118.16
2023-03-24T11:08:40.556Z,101123.88
2023-03-24T11:11:46.521Z,101116.28
2023-03-24T11:14:54.381Z,101115.19
2023-03-24T11:18:16.958Z,101120.06
2023-03-24T11:21:22.628Z,101112.22
2023-03-24T11:24:28.442Z,101113.78
2023-03-24T11:27:42.667Z,101106.47
2023-03-24T11:30:51.346Z,101104.63
2023-03-24T11:33:59.494Z,101112.16
2023-03-24T11:37:35.018Z,101100.00
2023-03-24T11:40:54.572Z,101085.19
2023-03-24T11:44:17.916Z,101080.59
2023-03-24T11:47:34.905Z,101091.16
2023-03-24T11:50:41.890Z,101084.84
2023-03-24T11:53:51.250Z,101087.88
2023-03-24T11:57:01.005Z,101076.81
2023-03-24T12:00:29.503Z,101079.56
2023-03-24T12:03:57.006Z,101078.59
2023-03-24T12:07:29.926Z,101085.59
2023-03-24T12:11:11.949Z,101076.38
2023-03-24T12:14:31.018Z,101066.94
2023-03-24T12:17:42.249Z,101066.63
2023-03-24T12:21:22.132Z,101063.81
2023-03-24T12:24:49.025Z,101061.06
2023-03-24T12:28:09.327Z,101051.31
2023-03-24T12:31:29.253Z,101046.59
2023-03-24T12:35:06.722Z,101038.75
2023-03-24T12:38:32.856Z,101027.94
2023-03-24T12:41:51.218Z,101035.13
2023-03-24T12:45:08.475Z,101025.03
2023-03-24T12:48:26.946Z,101022.59
2023-03-24T12:51:51.098Z,101011.06
2023-03-24T12:55:11.203Z,101004.91
2023-03-24T12:58:44.364Z,101012.03
2023-03-24T13:01:54.444Z,100999.91
2023-03-24T13:05:08.292Z,100994.31
2023-03-24T13:08:23.260Z,100987.06
2023-03-24T13:11:38.195Z,100990.41
2023-03-24T13:15:05.221Z,100985.00
2023-03-24T13:18:54.765Z,100975.59
2023-03-24T13:22:02.842Z,100976.22
2023-03-24T13:26:00.323Z,100970.63
2023-03-24T13:29:41.860Z,100964.81
2023-03-24T13:32:57.773Z,100964.47
2023-03-24T13:36:21.030Z,100970.00
2023-03-24T13:39:29.061Z,100968.50
2023-03-24T13:42:42.867Z,100967.56
2023-03-24T13:45:53.919Z,100953.94
2023-03-24T13:49:00.977Z,100948.25
2023-03-24T13:52:22.001Z,100947.94
2023-03-24T13:55:31.121Z,100949.13
2023-03-24T13:59:06.935Z,100934.81
2023-03-24T14:02:20.300Z,100930.13
2023-03-24T14:06:05.873Z,100921.78
2023-03-24T14:09:35.712Z,100904.00
2023-03-24T14:13:00.708Z,100910.47
2023-03-24T14:16:32.109Z,100904.22
2023-03-24T14:19:42.109Z,100903.72
2023-03-24T14:22:48.961Z,100896.84
2023-03-24T14:25:56.447Z,100900.88
2023-03-24T14:29:02.318Z,100895.28
2023-03-24T14:32:19.127Z,100887.69
2023-03-24T14:35:37.469Z,100882.56
2023-03-24T14:38:44.993Z,100880.72
2023-03-24T14:41:52.789Z,100869.53
2023-03-24T14:45:02.570Z,100861.91
2023-03-24T14:48:27.837Z,100850.44
2023-03-24T14:51:44.930Z,100853.34
2023-03-24T14:55:00.440Z,100853.19
2023-03-24T14:58:39.247Z,100859.16
2023-03-24T15:01:51.823Z,100856.44
2023-03-24T15:05:15.744Z,100855.78
2023-03-24T15:08:23.871Z,100863.75
2023-03-24T15:11:32.499Z,100864.44
2023-03-24T15:14:38.501Z,100858.06
2023-03-24T15:17:45.752Z,100859.00
2023-03-24T15:20:52.093Z,100848.53
2023-03-24T15:24:01.361Z,100841.59
2023-03-24T15:27:06.984Z,100849.03
2023-03-24T15:30:16.366Z,100842.56
2023-03-24T15:33:22.941Z,100857.34
2023-03-24T15:36:45.371Z,100844.91
2023-03-24T15:40:01.696Z,100851.75
2023-03-24T15:43:18.441Z,100842.63
2023-03-24T15:46:28.666Z,100841.53
2023-03-24T15:49:37.508Z,100854.25
2023-03-24T15:52:42.778Z,100854.53
2023-03-24T15:55:48.048Z,100852.84
2023-03-24T15:59:15.729Z,100854.28
2023-03-24T16:02:34.149Z,100854.34
2023-03-24T16:05:48.639Z,100849.84
2023-03-24T16:08:53.814Z,100856.44
2023-03-24T16:11:59.284Z,100853.22
2023-03-24T16:15:06.073Z,100842.19
2023-03-24T16:18:21.459Z,100844.69
2023-03-24T16:21:29.282Z,100851.75
2023-03-24T16:24:34.276Z,100854.22
2023-03-24T16:27:39.815Z,100861.53
2023-03-24T16:30:48.967Z,100858.31
2023-03-24T16:33:57.391Z,100849.47
2023-03-24T16:37:04.575Z,100849.81
2023-03-24T16:40:34.278Z,100845.50
2023-03-24T16:43:41.391Z,100854.44
2023-03-24T16:46:49.328Z,100858.47
2023-03-24T16:49:54.695Z,100861.75
2023-03-24T16:53:00.324Z,100853.66
2023-03-24T16:56:05.997Z,100850.44
2023-03-24T16:59:12.861Z,100847.22
2023-03-24T17:02:18.443Z,100844.53
2023-03-24T17:05:31.888Z,100845.09
2023-03-24T17:08:37.837Z,100848.88
2023-03-24T17:11:50.528Z,100850.28
2023-03-24T17:14:55.980Z,100854.34
2023-03-24T17:18:01.440Z,100864.63
2023-03-24T17:21:13.553Z,100858.19
2023-03-24T17:24:19.412Z,100858.75
2023-03-24T17:27:24.942Z,100849.59
2023-03-24T17:30:30.424Z,100855.56
2023-03-24T17:36:07.058Z,100849.66
2023-03-24T17:39:18.095Z,100850.19
2023-03-24T17:42:26.415Z,100834.59
2023-03-24T17:45:31.975Z,100841.63
2023-03-24T17:49:51.322Z,100846.75
2023-03-24T17:52:56.872Z,100847.56
2023-03-24T17:56:07.439Z,100853.81
2023-03-24T17:59:12.926Z,100841.69
2023-03-24T18:02:18.369Z,100853.31
2023-03-24T18:05:24.229Z,100837.44
2023-03-24T18:08:29.769Z,100833.13
2023-03-24T18:11:35.806Z,100836.38
2023-03-24T18:14:41.084Z,100833.66
2023-03-24T18:17:46.217Z,100829.91
2023-03-24T18:20:51.788Z,100829.66
2023-03-24T18:23:57.351Z,100845.56
2023-03-24T18:27:05.220Z,100845.31
2023-03-24T18:30:12.878Z,100843.41
2023-03-24T18:33:18.907Z,100848.25
2023-03-24T18:36:27.783Z,100840.19
2023-03-24T18:39:33.142Z,100831.28
2023-03-24T18:42:39.265Z,100838.03
2023-03-24T18:45:44.231Z,100838.31
2023-03-24T18:48:52.844Z,100836.66
2023-03-24T18:51:58.253Z,100835.84
2023-03-24T18:55:03.753Z,100831.25
2023-03-24T18:58:15.316Z,100833.97
2023-03-24T19:01:25.691Z,100844.19
2023-03-24T19:04:31.443Z,100843.13
2023-03-24T19:07:37.368Z,100837.75
2023-03-24T19:10:43.518Z,100833.16
2023-03-24T19:13:50.895Z,100825.88
2023-03-24T19:16:59.958Z,100828.56
2023-03-24T19:20:07.453Z,100832.31
2023-03-24T19:23:12.666Z,100829.63
2023-03-24T19:26:20.080Z,100829.63
2023-03-24T19:29:25.099Z,100823.19
2023-03-24T19:32:31.632Z,100813.50
2023-03-24T19:35:37.000Z,100818.59
2023-03-24T19:38:42.701Z,100825.88
2023-03-24T19:41:48.362Z,100826.94
2023-03-24T19:44:53.701Z,100822.59
2023-03-24T19:48:00.123Z,100823.41
2023-03-24T19:51:06.118Z,100827.44
2023-03-24T19:54:11.377Z,100828.22
2023-03-24T19:57:17.309Z,100827.09
2023-03-24T20:00:22.958Z,100827.09
2023-03-24T20:03:29.167Z,100831.38
2023-03-24T20:06:34.517Z,100832.47
2023-03-24T20:09:39.793Z,100829.53
2023-03-24T20:12:45.486Z,100841.84
2023-03-24T20:15:51.199Z,100844.75
2023-03-24T20:18:56.532Z,100843.72
2023-03-24T20:22:01.790Z,100841.84
2023-03-24T20:25:07.496Z,100842.09
2023-03-24T20:28:13.282Z,100840.22
2023-03-24T20:31:18.610Z,100838.03
2023-03-24T20:34:24.143Z,100837.19
2023-03-24T20:37:31.029Z,100851.22
2023-03-24T20:40:36.694Z,100860.88
2023-03-24T20:43:41.953Z,100853.84
2023-03-24T20:46:47.570Z,100855.44
2023-03-24T20:49:52.681Z,100842.25
2023-03-24T20:52:58.023Z,100853.03
2023-03-24T20:56:07.247Z,100857.06
2023-03-24T20:59:14.182Z,100856.22
2023-03-24T21:02:20.418Z,100855.94
2023-03-24T21:05:26.302Z,100845.16
2023-03-24T21:08:31.784Z,100851.38
2023-03-24T21:11:37.382Z,100857.56
2023-03-24T21:14:47.122Z,100849.75
2023-03-24T21:17:53.191Z,100845.78
2023-03-24T21:21:04.246Z,100836.16
2023-03-24T21:24:09.814Z,100834.84
2023-03-24T21:27:16.170Z,100827.88
2023-03-24T21:30:23.839Z,100829.47
2023-03-24T21:33:29.211Z,100832.91
2023-03-24T21:36:35.961Z,100836.66
2023-03-24T21:39:41.307Z,100848.69
2023-03-24T21:42:46.975Z,100841.19
2023-03-24T21:45:54.748Z,100850.06
2023-03-24T21:49:01.127Z,100846.84
2023-03-24T21:52:07.021Z,100849.00
2023-03-24T21:55:14.971Z,100849.69
2023-03-24T21:58:20.783Z,100849.38
2023-03-24T22:01:26.448Z,100845.28
2023-03-24T22:04:32.037Z,100853.25
2023-03-24T22:07:37.728Z,100849.22
2023-03-24T22:10:43.336Z,100857.81
2023-03-24T22:13:48.499Z,100848.69
2023-03-24T22:16:54.299Z,100844.31
2023-03-24T22:19:59.595Z,100845.13
2023-03-24T22:23:05.523Z,100846.19
2023-03-24T22:26:17.084Z,100840.72
2023-03-24T22:29:22.342Z,100841.53
2023-03-24T22:32:28.173Z,100838.25
2023-03-24T22:35:33.375Z,100835.25
2023-03-24T22:38:38.832Z,100845.97
2023-03-24T22:41:45.066Z,100847.69
2023-03-24T22:44:50.375Z,100840.81
2023-03-24T22:47:55.691Z,100837.03
2023-03-24T22:51:00.781Z,100839.75
2023-03-24T22:54:06.257Z,100832.00
2023-03-24T22:57:11.686Z,100832.00
2023-03-24T23:00:19.603Z,100826.97
2023-03-24T23:03:24.724Z,100833.09
2023-03-24T23:06:30.135Z,100836.06
2023-03-24T23:09:36.843Z,100829.84
2023-03-24T23:12:44.268Z,100817.72
2023-03-24T23:15:50.133Z,100810.00
2023-03-24T23:18:56.224Z,100818.34
2023-03-24T23:22:04.022Z,100824.00
2023-03-24T23:25:09.959Z,100819.69
2023-03-24T23:28:15.622Z,100827.72
2023-03-24T23:31:25.272Z,100823.66
2023-03-24T23:34:30.548Z,100823.13
2023-03-24T23:37:36.595Z,100813.03
2023-03-24T23:40:42.076Z,100824.13
2023-03-24T23:43:50.525Z,100814.34
2023-03-24T23:46:56.333Z,100823.75
2023-03-24T23:50:01.926Z,100821.84
2023-03-24T23:53:07.382Z,100825.06
2023-03-24T23:56:15.389Z,100825.31
2023-03-24T23:59:20.903Z,100827.19
